createdAt,value
2019-05-22T00:02:11.646Z,68.72
2019-05-22T00:04:45.553Z,68.99
2019-05-22T00:07:17.626Z,69.38
2019-05-22T00:09:51.818Z,69.72
2019-05-22T00:12:25.333Z,69.19
2019-05-22T00:14:57.731Z,69.21
2019-05-22T00:17:32.574Z,68.66
2019-05-22T00:20:06.726Z,68.56
2019-05-22T00:22:41.588Z,68.54
2019-05-22T00:25:16.316Z,67.95
2019-05-22T00:27:50.521Z,68.00
2019-05-22T00:30:25.116Z,67.62
2019-05-22T00:33:00.797Z,67.48
2019-05-22T00:35:32.246Z,68.16
2019-05-22T00:38:06.679Z,68.56
2019-05-22T00:40:55.116Z,68.79
2019-05-22T00:43:34.556Z,69.16
2019-05-22T00:46:07.952Z,68.34
2019-05-22T00:48:41.950Z,69.80
2019-05-22T00:51:36.252Z,70.75
2019-05-22T00:54:10.375Z,71.60
2019-05-22T00:56:47.637Z,72.22
2019-05-22T00:59:31.784Z,72.16
2019-05-22T01:02:12.052Z,72.31
2019-05-22T01:04:46.165Z,72.23
2019-05-22T01:07:18.539Z,72.15
2019-05-22T01:09:53.155Z,72.13
2019-05-22T01:12:27.317Z,72.45
2019-05-22T01:15:03.896Z,72.74
2019-05-22T01:17:38.369Z,73.03
2019-05-22T01:20:14.116Z,73.04
2019-05-22T01:22:47.716Z,72.69
2019-05-22T01:25:24.593Z,72.66
2019-05-22T01:27:58.297Z,71.71
2019-05-22T01:30:38.754Z,72.02
2019-05-22T01:33:29.043Z,71.62
2019-05-22T01:36:02.454Z,71.48
2019-05-22T01:38:36.555Z,71.29
2019-05-22T01:41:12.917Z,70.96
2019-05-22T01:43:46.417Z,70.15
2019-05-22T01:46:19.199Z,70.23
2019-05-22T01:48:53.953Z,70.12
2019-05-22T01:51:26.194Z,69.75
2019-05-22T01:53:58.545Z,70.08
2019-05-22T01:56:33.543Z,70.13
2019-05-22T01:59:07.506Z,69.78
2019-05-22T02:01:40.466Z,69.92
2019-05-22T02:04:14.877Z,69.45
2019-05-22T02:06:48.418Z,68.99
2019-05-22T02:09:35.635Z,68.15
2019-05-22T02:12:23.877Z,68.32
2019-05-22T02:14:56.356Z,68.56
2019-05-22T02:17:31.382Z,68.08
2019-05-22T02:20:06.740Z,68.10
2019-05-22T02:22:41.048Z,67.97
2019-05-22T02:25:14.118Z,66.97
2019-05-22T02:27:47.022Z,66.43
2019-05-22T02:30:22.218Z,66.51
2019-05-22T02:32:55.539Z,66.27
2019-05-22T02:35:27.885Z,66.28
2019-05-22T02:38:00.840Z,66.63
2019-05-22T02:40:36.864Z,66.76
2019-05-22T02:43:09.428Z,66.75
2019-05-22T02:45:41.710Z,66.68
2019-05-22T02:48:15.127Z,66.19
2019-05-22T02:50:48.501Z,66.95
2019-05-22T02:53:21.011Z,66.26
2019-05-22T02:55:53.400Z,65.12
2019-05-22T02:58:27.768Z,64.89
2019-05-22T03:01:03.037Z,65.57
2019-05-22T03:03:36.809Z,65.54
2019-05-22T03:06:13.982Z,65.77
2019-05-22T03:09:05.824Z,64.10
2019-05-22T03:11:40.550Z,62.50
2019-05-22T03:14:13.532Z,60.85
2019-05-22T03:16:51.917Z,60.38
2019-05-22T03:19:27.696Z,60.35
2019-05-22T03:21:59.150Z,60.14
2019-05-22T03:24:31.113Z,59.75
2019-05-22T03:27:03.636Z,59.31
2019-05-22T03:29:43.536Z,59.11
2019-05-22T03:32:15.888Z,59.10
2019-05-22T03:34:48.382Z,58.90
2019-05-22T03:37:21.396Z,58.71
2019-05-22T03:39:52.925Z,58.79
2019-05-22T03:42:24.886Z,58.79
2019-05-22T03:44:56.743Z,58.53
2019-05-22T03:47:28.504Z,58.65
2019-05-22T03:50:01.077Z,58.55
2019-05-22T03:52:33.149Z,59.16
2019-05-22T03:55:07.815Z,59.56
2019-05-22T03:57:39.724Z,60.47
2019-05-22T04:00:15.787Z,59.90
2019-05-22T04:02:51.414Z,60.16
2019-05-22T04:05:25.301Z,60.90
2019-05-22T04:07:58.558Z,59.91
2019-05-22T04:10:34.070Z,60.95
2019-05-22T04:13:06.404Z,60.92
2019-05-22T04:15:38.666Z,61.50
2019-05-22T04:18:15.299Z,61.26
2019-05-22T04:20:47.051Z,61.73
2019-05-22T04:23:19.113Z,60.83
2019-05-22T04:25:53.456Z,60.84
2019-05-22T04:28:26.463Z,61.78
2019-05-22T04:31:00.320Z,61.47
2019-05-22T04:33:31.986Z,61.55
2019-05-22T04:36:04.648Z,61.50
2019-05-22T04:38:36.010Z,61.79
2019-05-22T04:41:09.201Z,61.83
2019-05-22T04:43:41.290Z,62.04
2019-05-22T04:46:14.244Z,62.96
2019-05-22T04:48:46.671Z,63.25
2019-05-22T04:51:25.487Z,63.41
2019-05-22T04:53:58.958Z,64.35
2019-05-22T04:56:31.006Z,65.96
2019-05-22T04:59:05.563Z,68.04
2019-05-22T05:01:38.107Z,68.19
2019-05-22T05:04:11.501Z,70.20
2019-05-22T05:06:43.460Z,70.88
2019-05-22T05:09:16.452Z,71.50
2019-05-22T05:11:48.205Z,73.50
2019-05-22T05:14:19.654Z,73.70
2019-05-22T05:16:52.555Z,74.22
2019-05-22T05:19:24.094Z,77.07
2019-05-22T05:21:55.745Z,78.90
2019-05-22T05:24:28.835Z,79.88
2019-05-22T05:27:02.236Z,82.54
2019-05-22T05:29:34.532Z,82.26
2019-05-22T05:32:06.417Z,83.26
2019-05-22T05:34:45.254Z,83.02
2019-05-22T05:37:17.459Z,84.98
2019-05-22T05:39:54.945Z,85.66
2019-05-22T05:42:26.818Z,86.88
2019-05-22T05:44:58.969Z,87.19
2019-05-22T05:47:31.035Z,87.96
2019-05-22T05:50:05.831Z,86.98
2019-05-22T05:52:38.925Z,87.41
2019-05-22T05:55:11.881Z,85.56
2019-05-22T05:57:52.506Z,84.45
2019-05-22T06:00:35.527Z,85.29
2019-05-22T06:03:31.201Z,86.71
2019-05-22T06:06:05.584Z,86.29
2019-05-22T06:08:38.240Z,88.51
2019-05-22T06:11:29.672Z,89.26
2019-05-22T06:14:04.201Z,90.04
2019-05-22T06:16:58.977Z,87.26
2019-05-22T06:19:33.498Z,87.95
2019-05-22T06:22:05.871Z,87.50
2019-05-22T06:24:46.333Z,88.69
2019-05-22T06:27:20.448Z,89.98
2019-05-22T06:30:05.315Z,90.42
2019-05-22T06:32:57.764Z,86.95
2019-05-22T06:35:36.376Z,85.51
2019-05-22T06:38:27.484Z,86.23
2019-05-22T06:40:59.547Z,89.17
2019-05-22T06:43:36.734Z,90.81
2019-05-22T06:46:09.408Z,90.79
2019-05-22T06:48:42.500Z,90.93
2019-05-22T06:51:19.453Z,89.97
2019-05-22T06:53:47.683Z,89.33
2019-05-22T06:56:23.397Z,90.36
2019-05-22T06:58:52.908Z,89.85
2019-05-22T07:01:26.070Z,90.49
2019-05-22T07:03:58.371Z,92.73
2019-05-22T07:06:30.144Z,93.55
2019-05-22T07:09:03.729Z,92.43
2019-05-22T07:11:35.685Z,92.50
2019-05-22T07:14:08.033Z,93.32
2019-05-22T07:16:41.760Z,92.96
2019-05-22T07:19:13.724Z,93.22
2019-05-22T07:21:47.022Z,93.34
2019-05-22T07:24:22.054Z,92.45
2019-05-22T07:26:54.615Z,91.91
2019-05-22T07:29:27.308Z,92.38
2019-05-22T07:32:02.404Z,92.71
2019-05-22T07:34:34.452Z,93.12
2019-05-22T07:37:07.093Z,94.75
2019-05-22T07:39:39.088Z,95.14
2019-05-22T07:42:10.852Z,96.71
2019-05-22T07:44:42.465Z,96.49
2019-05-22T07:47:15.577Z,94.71
2019-05-22T07:49:47.422Z,95.37
2019-05-22T07:52:19.609Z,94.00
2019-05-22T07:54:53.178Z,94.16
2019-05-22T07:57:26.985Z,93.36
2019-05-22T07:59:58.504Z,93.24
2019-05-22T08:02:36.005Z,92.18
2019-05-22T08:05:09.567Z,93.29
2019-05-22T08:07:41.505Z,94.74
2019-05-22T08:10:15.964Z,95.12
2019-05-22T08:12:47.975Z,94.62
2019-05-22T08:15:21.574Z,95.27
2019-05-22T08:17:53.430Z,93.33
2019-05-22T08:20:25.280Z,92.74
2019-05-22T08:22:59.413Z,90.72
2019-05-22T08:25:32.025Z,90.08
2019-05-22T08:28:03.485Z,90.51
2019-05-22T08:30:34.888Z,91.96
2019-05-22T08:33:11.617Z,91.89
2019-05-22T08:35:44.794Z,91.62
2019-05-22T08:38:16.499Z,90.44
2019-05-22T08:40:48.930Z,89.49
2019-05-22T08:43:20.592Z,90.06
2019-05-22T08:45:52.868Z,90.42
2019-05-22T08:48:25.625Z,90.76
2019-05-22T08:50:59.025Z,92.15
2019-05-22T08:53:46.151Z,89.26
2019-05-22T08:56:06.376Z,89.99
2019-05-22T08:58:40.627Z,90.06
2019-05-22T09:01:15.372Z,89.51
2019-05-22T09:03:47.186Z,87.43
2019-05-22T09:06:18.811Z,87.93
2019-05-22T09:08:50.501Z,88.03
2019-05-22T09:11:22.148Z,88.46
2019-05-22T09:13:53.700Z,88.42
2019-05-22T09:16:26.485Z,87.84
2019-05-22T09:19:00.192Z,87.77
2019-05-22T09:21:32.478Z,86.28
2019-05-22T09:24:04.936Z,85.80
2019-05-22T09:26:36.687Z,87.30
2019-05-22T09:29:08.448Z,86.81
2019-05-22T09:31:40.606Z,87.89
2019-05-22T09:34:12.372Z,88.42
2019-05-22T09:36:44.223Z,88.68
2019-05-22T09:39:16.292Z,89.27
2019-05-22T09:41:47.841Z,89.84
2019-05-22T09:44:20.422Z,89.54
2019-05-22T09:46:52.899Z,89.08
2019-05-22T09:49:25.061Z,89.28
2019-05-22T09:51:57.024Z,89.72
2019-05-22T09:54:28.984Z,89.50
2019-05-22T09:57:00.740Z,89.45
2019-05-22T09:59:32.192Z,89.53
2019-05-22T10:02:06.631Z,88.27
2019-05-22T10:04:38.369Z,87.89
2019-05-22T10:07:09.921Z,88.78
2019-05-22T10:09:42.195Z,88.03
2019-05-22T10:12:14.357Z,87.38
2019-05-22T10:14:46.729Z,89.19
2019-05-22T10:17:18.388Z,87.19
2019-05-22T10:19:50.501Z,86.57
2019-05-22T10:22:22.695Z,87.27
2019-05-22T10:25:13.786Z,89.14
2019-05-22T10:27:28.792Z,88.16
2019-05-22T10:30:00.392Z,87.35
2019-05-22T10:32:32.773Z,87.85
2019-05-22T10:35:05.399Z,87.99
2019-05-22T10:37:37.051Z,88.27
2019-05-22T10:40:10.655Z,88.15
2019-05-22T10:42:44.916Z,89.48
2019-05-22T10:45:17.414Z,89.97
2019-05-22T10:47:49.963Z,90.77
2019-05-22T10:50:21.917Z,91.35
2019-05-22T10:52:55.310Z,90.29
2019-05-22T10:55:27.287Z,89.60
2019-05-22T10:57:58.997Z,90.55
2019-05-22T11:00:31.307Z,90.04
2019-05-22T11:03:04.047Z,89.87
2019-05-22T11:05:36.836Z,90.42
2019-05-22T11:08:09.466Z,90.65
2019-05-22T11:10:45.065Z,90.64
2019-05-22T11:13:16.094Z,90.25
2019-05-22T11:15:47.866Z,91.57
2019-05-22T11:18:19.772Z,91.74
2019-05-22T11:20:51.790Z,92.07
2019-05-22T11:23:24.632Z,92.38
2019-05-22T11:25:56.534Z,92.80
2019-05-22T11:28:29.664Z,95.64
2019-05-22T11:31:02.513Z,96.24
2019-05-22T11:33:34.625Z,96.43
2019-05-22T11:36:07.643Z,95.74
2019-05-22T11:38:39.419Z,95.11
2019-05-22T11:41:13.109Z,95.26
2019-05-22T11:43:45.993Z,94.41
2019-05-22T11:46:18.069Z,94.99
2019-05-22T11:48:49.589Z,95.53
2019-05-22T11:51:22.998Z,95.25
2019-05-22T11:54:08.767Z,96.35
2019-05-22T11:56:28.783Z,96.37
2019-05-22T11:59:00.321Z,96.34
2019-05-22T12:01:32.117Z,95.58
2019-05-22T12:04:05.807Z,94.46
2019-05-22T12:06:37.675Z,90.60
2019-05-22T12:09:12.070Z,91.27
2019-05-22T12:11:43.770Z,91.23
2019-05-22T12:14:18.090Z,93.01
2019-05-22T12:16:53.052Z,93.46
2019-05-22T12:19:24.108Z,91.05
2019-05-22T12:21:56.170Z,91.34
2019-05-22T12:24:35.733Z,92.83
2019-05-22T12:27:01.538Z,93.69
2019-05-22T12:29:33.561Z,93.67
2019-05-22T12:32:05.252Z,93.36
2019-05-22T12:34:37.216Z,93.55
2019-05-22T12:37:09.379Z,89.68
2019-05-22T12:39:41.871Z,90.34
2019-05-22T12:42:14.185Z,92.50
2019-05-22T12:44:47.262Z,92.59
2019-05-22T12:47:19.791Z,92.08
2019-05-22T12:49:52.849Z,93.31
2019-05-22T12:52:24.941Z,92.26
2019-05-22T12:54:57.704Z,93.32
2019-05-22T12:57:29.487Z,93.56
2019-05-22T13:00:03.023Z,92.79
2019-05-22T13:02:42.535Z,92.28
2019-05-22T13:05:14.535Z,91.28
2019-05-22T13:07:47.120Z,91.85
2019-05-22T13:10:20.918Z,92.50
2019-05-22T13:12:52.618Z,92.43
2019-05-22T13:15:25.258Z,92.26
2019-05-22T13:17:59.532Z,92.04
2019-05-22T13:20:42.519Z,92.23
2019-05-22T13:23:07.968Z,90.33
2019-05-22T13:25:41.174Z,90.43
2019-05-22T13:28:14.669Z,91.41
2019-05-22T13:30:53.146Z,91.63
2019-05-22T13:33:28.563Z,91.88
2019-05-22T13:36:00.663Z,92.41
2019-05-22T13:38:32.748Z,91.99
2019-05-22T13:41:05.944Z,91.81
2019-05-22T13:43:37.914Z,90.42
2019-05-22T13:46:10.043Z,90.86
2019-05-22T13:48:42.205Z,89.78
2019-05-22T13:51:15.612Z,90.44
2019-05-22T13:53:49.817Z,89.66
2019-05-22T13:56:25.212Z,90.27
2019-05-22T13:58:56.298Z,88.62
2019-05-22T14:01:29.237Z,89.18
2019-05-22T14:04:00.956Z,88.29
2019-05-22T14:06:32.606Z,87.17
2019-05-22T14:09:05.706Z,87.86
2019-05-22T14:11:37.679Z,88.42
2019-05-22T14:14:09.486Z,88.27
2019-05-22T14:16:48.526Z,89.02
2019-05-22T14:19:14.882Z,88.47
2019-05-22T14:21:51.195Z,87.70
2019-05-22T14:24:20.534Z,86.79
2019-05-22T14:26:52.192Z,87.09
2019-05-22T14:29:23.945Z,86.96
2019-05-22T14:31:56.216Z,88.11
2019-05-22T14:34:28.081Z,87.12
2019-05-22T14:37:00.154Z,86.94
2019-05-22T14:39:32.804Z,86.53
2019-05-22T14:42:04.883Z,87.63
2019-05-22T14:44:36.543Z,85.88
2019-05-22T14:47:14.375Z,86.13
2019-05-22T14:49:42.922Z,85.57
2019-05-22T14:52:15.604Z,86.69
2019-05-22T14:54:48.700Z,86.31
2019-05-22T14:57:21.241Z,85.18
2019-05-22T14:59:52.918Z,82.96
2019-05-22T15:02:25.669Z,82.21
2019-05-22T15:04:58.592Z,80.15
2019-05-22T15:07:30.552Z,79.97
2019-05-22T15:10:02.316Z,79.39
2019-05-22T15:12:34.940Z,78.62
2019-05-22T15:15:09.481Z,79.92
2019-05-22T15:17:42.291Z,78.60
2019-05-22T15:20:16.912Z,79.46
2019-05-22T15:22:48.467Z,79.36
2019-05-22T15:25:22.472Z,80.34
2019-05-22T15:27:54.454Z,82.51
2019-05-22T15:30:26.397Z,83.92
2019-05-22T15:32:59.696Z,84.98
2019-05-22T15:35:31.755Z,84.40
2019-05-22T15:38:03.825Z,84.06
2019-05-22T15:40:36.089Z,81.92
2019-05-22T15:43:09.666Z,80.99
2019-05-22T15:45:42.124Z,81.16
2019-05-22T15:48:18.121Z,81.12
2019-05-22T15:50:51.414Z,80.63
2019-05-22T15:53:25.645Z,80.47
2019-05-22T15:55:59.455Z,80.02
2019-05-22T15:58:33.035Z,80.28
2019-05-22T16:01:07.684Z,80.23
2019-05-22T16:03:42.631Z,80.74
2019-05-22T16:06:16.429Z,80.42
2019-05-22T16:08:50.398Z,80.64
2019-05-22T16:11:25.234Z,77.67
2019-05-22T16:13:59.961Z,76.63
2019-05-22T16:16:33.200Z,77.66
2019-05-22T16:19:07.672Z,75.40
2019-05-22T16:21:42.458Z,76.40
2019-05-22T16:24:15.138Z,76.43
2019-05-22T16:26:48.492Z,77.41
2019-05-22T16:29:22.192Z,78.10
2019-05-22T16:31:54.553Z,78.02
2019-05-22T16:34:28.548Z,77.33
2019-05-22T16:37:03.707Z,77.77
2019-05-22T16:39:36.377Z,78.69
2019-05-22T16:42:10.200Z,78.86
2019-05-22T16:44:42.505Z,79.32
2019-05-22T16:47:14.723Z,79.09
2019-05-22T16:49:46.488Z,79.24
2019-05-22T16:52:19.358Z,80.39
2019-05-22T16:54:51.936Z,79.18
2019-05-22T16:57:25.764Z,81.06
2019-05-22T16:59:58.131Z,80.52
2019-05-22T17:02:32.434Z,81.66
2019-05-22T17:05:06.091Z,82.09
2019-05-22T17:07:39.124Z,80.82
2019-05-22T17:10:11.765Z,83.21
2019-05-22T17:12:44.588Z,82.19
2019-05-22T17:15:19.730Z,82.17
2019-05-22T17:17:51.782Z,83.05
2019-05-22T17:20:25.507Z,84.57
2019-05-22T17:22:58.207Z,84.44
2019-05-22T17:25:30.459Z,84.15
2019-05-22T17:28:03.782Z,83.63
2019-05-22T17:30:37.333Z,84.01
2019-05-22T17:33:10.045Z,85.65
2019-05-22T17:35:41.874Z,85.82
2019-05-22T17:38:14.612Z,84.85
2019-05-22T17:40:47.022Z,85.49
2019-05-22T17:43:19.394Z,85.88
2019-05-22T17:45:52.486Z,85.05
2019-05-22T17:48:24.656Z,85.63
2019-05-22T17:50:56.922Z,86.41
2019-05-22T17:53:29.431Z,86.59
2019-05-22T17:56:01.150Z,86.66
2019-05-22T17:58:33.114Z,87.13
2019-05-22T18:01:06.714Z,87.49
2019-05-22T18:03:38.472Z,87.55
2019-05-22T18:06:11.235Z,88.27
2019-05-22T18:08:43.211Z,88.88
2019-05-22T18:11:16.303Z,89.77
2019-05-22T18:14:03.849Z,89.89
2019-05-22T18:16:36.417Z,89.05
2019-05-22T18:19:08.854Z,89.25
2019-05-22T18:21:41.328Z,88.64
2019-05-22T18:24:13.656Z,89.08
2019-05-22T18:26:45.485Z,89.00
2019-05-22T18:29:17.042Z,88.19
2019-05-22T18:31:48.975Z,88.18
2019-05-22T18:34:20.459Z,88.75
2019-05-22T18:36:52.103Z,88.09
2019-05-22T18:39:24.594Z,89.16
2019-05-22T18:41:56.337Z,90.01
2019-05-22T18:44:28.093Z,88.52
2019-05-22T18:47:00.272Z,89.49
2019-05-22T18:49:31.710Z,88.90
2019-05-22T18:52:04.599Z,88.94
2019-05-22T18:54:36.268Z,89.77
2019-05-22T18:57:07.797Z,90.14
2019-05-22T18:59:39.354Z,90.69
2019-05-22T19:02:12.748Z,91.18
2019-05-22T19:04:44.551Z,91.11
2019-05-22T19:07:16.263Z,91.04
2019-05-22T19:09:48.940Z,91.04
2019-05-22T19:12:20.801Z,91.06
2019-05-22T19:14:52.464Z,91.36
2019-05-22T19:17:25.246Z,91.23
2019-05-22T19:19:57.104Z,91.47
2019-05-22T19:22:28.955Z,91.26
2019-05-22T19:25:01.246Z,92.05
2019-05-22T19:27:33.191Z,92.62
2019-05-22T19:30:06.381Z,92.64
2019-05-22T19:32:38.343Z,92.27
2019-05-22T19:35:10.407Z,92.60
2019-05-22T19:37:42.203Z,92.78
2019-05-22T19:40:14.450Z,92.74
2019-05-22T19:42:46.432Z,92.68
2019-05-22T19:45:20.249Z,91.46
2019-05-22T19:47:56.163Z,91.97
2019-05-22T19:50:29.452Z,92.08
2019-05-22T19:53:17.574Z,92.52
2019-05-22T19:55:36.087Z,92.63
2019-05-22T19:58:09.439Z,92.91
2019-05-22T20:00:41.703Z,92.96
2019-05-22T20:03:15.977Z,93.79
2019-05-22T20:05:48.598Z,93.23
2019-05-22T20:08:20.454Z,93.68
2019-05-22T20:10:52.677Z,93.46
2019-05-22T20:13:25.025Z,93.47
2019-05-22T20:15:56.545Z,92.47
2019-05-22T20:18:29.636Z,91.99
2019-05-22T20:21:01.600Z,92.24
2019-05-22T20:23:36.501Z,92.20
2019-05-22T20:26:07.669Z,92.08
2019-05-22T20:28:40.162Z,92.45
2019-05-22T20:31:11.812Z,92.99
2019-05-22T20:33:44.173Z,91.62
2019-05-22T20:36:16.343Z,91.29
2019-05-22T20:38:47.891Z,89.38
2019-05-22T20:41:21.494Z,89.20
2019-05-22T20:43:53.351Z,89.30
2019-05-22T20:46:25.547Z,89.71
2019-05-22T20:48:57.380Z,89.32
2019-05-22T20:51:29.310Z,90.53
2019-05-22T20:54:03.003Z,91.26
2019-05-22T20:56:35.433Z,91.10
2019-05-22T20:59:07.991Z,89.95
2019-05-22T21:01:52.345Z,90.08
2019-05-22T21:04:37.733Z,89.61
2019-05-22T21:07:22.073Z,89.02
2019-05-22T21:09:53.811Z,87.96
2019-05-22T21:12:27.842Z,87.71
2019-05-22T21:15:01.351Z,87.86
2019-05-22T21:17:33.717Z,88.53
2019-05-22T21:20:08.849Z,88.83
2019-05-22T21:22:41.322Z,88.16
2019-05-22T21:25:13.694Z,88.82
2019-05-22T21:27:45.961Z,89.98
2019-05-22T21:30:19.206Z,89.72
2019-05-22T21:32:50.704Z,89.19
2019-05-22T21:35:24.425Z,86.61
2019-05-22T21:37:56.818Z,85.53
2019-05-22T21:40:28.330Z,84.03
2019-05-22T21:43:00.909Z,84.49
2019-05-22T21:45:34.726Z,85.20
2019-05-22T21:48:07.292Z,84.17
2019-05-22T21:50:39.558Z,85.11
2019-05-22T21:53:14.094Z,85.44
2019-05-22T21:55:47.174Z,85.37
2019-05-22T21:58:19.141Z,86.05
2019-05-22T22:00:57.749Z,85.66
2019-05-22T22:03:31.571Z,85.92
2019-05-22T22:06:04.753Z,86.22
2019-05-22T22:08:36.716Z,86.56
2019-05-22T22:11:08.999Z,87.29
2019-05-22T22:13:41.591Z,86.79
2019-05-22T22:16:14.666Z,87.31
2019-05-22T22:18:46.921Z,87.45
2019-05-22T22:21:18.567Z,87.81
2019-05-22T22:23:50.946Z,87.50
2019-05-22T22:26:26.173Z,88.07
2019-05-22T22:28:56.309Z,88.65
2019-05-22T22:31:30.375Z,88.80
2019-05-22T22:34:14.253Z,88.24
2019-05-22T22:36:47.566Z,89.01
2019-05-22T22:39:21.728Z,89.56
2019-05-22T22:41:58.221Z,89.49
2019-05-22T22:44:29.779Z,89.48
2019-05-22T22:47:07.887Z,89.34
2019-05-22T22:49:40.670Z,89.20
2019-05-22T22:52:15.194Z,89.78
2019-05-22T22:54:48.491Z,89.93
2019-05-22T22:57:20.911Z,90.64
2019-05-22T22:59:52.438Z,90.72
2019-05-22T23:02:29.181Z,90.29
2019-05-22T23:05:01.192Z,90.17
2019-05-22T23:07:34.684Z,90.19
2019-05-22T23:10:09.066Z,89.37
2019-05-22T23:12:41.616Z,88.68
2019-05-22T23:15:18.310Z,88.93
2019-05-22T23:17:50.888Z,89.27
2019-05-22T23:20:21.724Z,89.27
2019-05-22T23:22:52.564Z,89.80
2019-05-22T23:25:26.173Z,89.50
2019-05-22T23:27:59.322Z,90.18
2019-05-22T23:30:31.418Z,88.84
2019-05-22T23:33:03.613Z,89.82
2019-05-22T23:35:35.751Z,89.34
2019-05-22T23:38:07.524Z,89.21
2019-05-22T23:40:39.917Z,88.63
2019-05-22T23:43:12.091Z,88.63
2019-05-22T23:45:44.623Z,89.40
2019-05-22T23:48:17.409Z,89.75
2019-05-22T23:50:49.618Z,88.64
2019-05-22T23:53:25.270Z,89.26
2019-05-22T23:55:58.971Z,89.79
2019-05-22T23:58:32.875Z,89.53
